Maria — SV7156 — position and weather

sailwx.info

Track history (hours):
 
Tides and Currents Weather Stations Pressure Air Temp Water Temp Dewpoint Dewpoint Depression Visibility Wind Speed Wind Dir Waves Ship Positions

Maria

Last reported at 2017-Sep-16 12:33 UTC. Time now 2017-Oct-22 04:49 UTC.
Position N 37°58' E 023°35'.
Warning: this ship's position is 35 days out of date.

Length 74 m; draft 4.5 m.

Type: Ship. MMSI: 237493000.

Date/timePositionNaut miles runAvg speedWind from/ knotsBaromVisibWave heightAir tempDewpointWater temp
2017-Sep-16 12:33N 37°58' E 023°35'0 0.4
2017-Sep-16 12:30N 37°58' E 023°35'1 2.1
2017-Sep-16 12:00N 37°57' E 023°36'0 0.0
2017-Sep-16 11:30N 37°57' E 023°36'0 0.0
2017-Sep-16 11:00N 37°57' E 023°36'0 0.0
2017-Sep-16 10:30N 37°57' E 023°36'0 0.0
2017-Sep-16 10:00N 37°57' E 023°36'0 0.1
2017-Sep-16 09:30N 37°57' E 023°36'0 0.1
2017-Sep-16 09:00N 37°57' E 023°36'0 0.0
2017-Sep-16 08:31N 37°57' E 023°36'0 0.0
2017-Sep-16 08:00N 37°57' E 023°36'0 0.0
2017-Sep-16 07:30N 37°57' E 023°36'0 0.0
2017-Sep-16 07:00N 37°57' E 023°36'0 0.0
2017-Sep-16 06:30N 37°57' E 023°36'1 2.0
2017-Sep-16 06:01N 37°57' E 023°35'0 0.3
2017-Sep-16 05:30N 37°58' E 023°35'0 0.0
2017-Sep-16 05:00N 37°58' E 023°35'0 0.0
2017-Sep-16 04:30N 37°58' E 023°35'0 0.0
2017-Sep-16 04:00N 37°58' E 023°35'0 0.0
2017-Sep-15 12:43N 37°58' E 023°35'0 0.0
2017-Sep-14 13:10N 37°58' E 023°35'0 2.5
2017-Sep-14 13:00N 37°57' E 023°35'3 6.5
2017-Sep-14 12:30N 37°54' E 023°33'4 7.0
2017-Sep-14 12:01N 37°52' E 023°29'4 7.1
2017-Sep-14 11:31N 37°52' E 023°25'4 7.3
2017-Sep-14 11:00N 37°52' E 023°20'4 7.3
2017-Sep-14 10:28N 37°53' E 023°15'3 0.3
2017-Sep-13 23:49N 37°55' E 023°12'2 7.4
2017-Sep-13 23:30N 37°54' E 023°15'4 7.2
2017-Sep-13 22:59N 37°53' E 023°19'4 7.9
2017-Sep-13 22:30N 37°52' E 023°24'4 7.6
2017-Sep-13 22:01N 37°52' E 023°29'4 7.4
2017-Sep-13 21:31N 37°54' E 023°33'4 7.3
2017-Sep-13 21:01N 37°57' E 023°35'0 0.5
2017-Sep-13 20:30N 37°58' E 023°35'1 1.2
2017-Sep-13 20:01N 37°57' E 023°35'0 0.0
2017-Sep-13 19:30N 37°57' E 023°35'0 0.0
2017-Sep-13 18:59N 37°57' E 023°35'0 0.0
2017-Sep-13 18:31N 37°57' E 023°35'0 0.0
2017-Sep-13 18:00N 37°57' E 023°35'0 0.0
2017-Sep-13 17:30N 37°57' E 023°35'0 0.0
2017-Sep-13 17:00N 37°57' E 023°35'0 0.0
2017-Sep-13 16:30N 37°57' E 023°35'0 0.0
2017-Sep-13 15:59N 37°57' E 023°35'2 4.8
2017-Sep-13 15:30N 37°55' E 023°34'4 8.3
2017-Sep-13 15:00N 37°52' E 023°31'1 1.5
2017-Sep-13 14:30N 37°51' E 023°30'0 0.0
2017-Sep-13 14:01N 37°51' E 023°30'0 0.0
2017-Sep-13 13:30N 37°51' E 023°30'0 0.0
2017-Sep-13 13:00N 37°51' E 023°30'0 0.0
2017-Sep-13 12:28N 37°51' E 023°30'0 0.0
2017-Sep-13 12:00N 37°51' E 023°30'0 0.0
2017-Sep-13 11:30N 37°51' E 023°30'0 0.0
2017-Sep-13 11:00N 37°51' E 023°30'0 0.0
2017-Sep-13 10:30N 37°51' E 023°30'0 0.0
2017-Sep-13 09:59N 37°51' E 023°30'1 2.2
2017-Sep-13 09:29N 37°52' E 023°31'3 7.1
2017-Sep-13 09:00N 37°55' E 023°34'3 5.5
2017-Sep-13 08:30N 37°58' E 023°35'0 0.0
2017-Sep-13 07:58N 37°58' E 023°35'0 0.0
2017-Sep-11 08:17N 37°58' E 023°35'0 0.2
2017-Sep-11 08:00N 37°58' E 023°35'0 0.0
2017-Sep-11 07:30N 37°58' E 023°35'0 0.0
2017-Sep-11 07:00N 37°58' E 023°35'0 0.0
2017-Sep-11 06:30N 37°58' E 023°35'0 0.0
2017-Sep-11 06:00N 37°58' E 023°35'0 0.0
2017-Sep-11 05:30N 37°58' E 023°35'0 0.0
2017-Sep-11 05:00N 37°58' E 023°35'0 0.0
2017-Sep-11 04:30N 37°58' E 023°35'1 2.8
2017-Sep-11 04:00N 37°56' E 023°35'4 7.2
2017-Sep-11 03:30N 37°53' E 023°32'4 7.5
2017-Sep-11 03:00N 37°51' E 023°28'4 7.7
2017-Sep-11 02:30N 37°52' E 023°23'4 7.8
2017-Sep-11 01:59N 37°53' E 023°18'6 7.5
2017-Sep-11 01:15N 37°54' E 023°11'4 0.5
2017-Sep-10 17:00N 37°54' E 023°16'4 8.3
2017-Sep-10 16:30N 37°53' E 023°21'4 8.4
2017-Sep-10 16:00N 37°52' E 023°26'4 7.9
2017-Sep-10 15:30N 37°54' E 023°31'4 7.6
2017-Sep-10 15:00N 37°56' E 023°35'2 0.0
2017-Sep-08 11:10N 37°58' E 023°35'0 0.6
2017-Sep-08 11:00N 37°57' E 023°35'0 0.3
2017-Sep-08 10:30N 37°58' E 023°35'0 0.0
2017-Sep-08 10:00N 37°58' E 023°35'0 0.0
2017-Sep-08 09:30N 37°58' E 023°35'0 0.0
2017-Sep-08 09:00N 37°58' E 023°35'0 0.0
2017-Sep-08 08:30N 37°58' E 023°35'0 0.0
2017-Sep-08 08:00N 37°58' E 023°35'0 0.0
2017-Sep-08 07:30N 37°58' E 023°35'0 0.0
2017-Sep-08 07:00N 37°58' E 023°35'0 0.0
2017-Sep-08 06:30N 37°58' E 023°35'0 0.0
2017-Sep-08 06:00N 37°58' E 023°35'0 0.0
2017-Sep-08 05:30N 37°58' E 023°35'0 0.0
2017-Sep-08 05:00N 37°58' E 023°35'0 0.0
2017-Sep-08 04:30N 37°58' E 023°35'0 0.0
2017-Sep-08 04:00N 37°58' E 023°35'0 0.0
2017-Sep-08 03:30N 37°58' E 023°35'0 0.0
2017-Sep-08 03:00N 37°58' E 023°35'0 0.0
2017-Sep-08 02:30N 37°58' E 023°35'0 0.3
2017-Sep-08 02:00N 37°57' E 023°35'3 6.7
2017-Sep-08 01:30N 37°54' E 023°33'4 7.9
2017-Sep-08 01:00N 37°52' E 023°29'4 8.0
2017-Sep-08 00:30N 37°52' E 023°24'4 8.1
2017-Sep-08 00:00N 37°52' E 023°19'4 8.0
2017-Sep-07 23:30N 37°53' E 023°14'5 0.8
2017-Sep-07 16:48N 37°55' E 023°08'3 8.6
2017-Sep-07 16:26N 37°54' E 023°12'4 8.4
2017-Sep-07 15:58N 37°54' E 023°17'4 8.4
2017-Sep-07 15:30N 37°53' E 023°22'4 8.2
2017-Sep-07 15:00N 37°52' E 023°27'4 7.9
2017-Sep-07 14:30N 37°53' E 023°31'0 0.3
2017-Sep-07 14:00N 37°53' E 023°32'0 0.0
2017-Sep-07 13:30N 37°53' E 023°32'0 0.0
2017-Sep-07 13:00N 37°53' E 023°32'0 0.0
2017-Sep-07 12:30N 37°53' E 023°32'0 0.1
2017-Sep-07 12:00N 37°53' E 023°32'0 0.0
2017-Sep-07 11:30N 37°53' E 023°32'0 0.1
2017-Sep-07 11:00N 37°53' E 023°32'0 0.0
2017-Sep-07 10:30N 37°53' E 023°32'0 0.0
2017-Sep-07 10:00N 37°53' E 023°32'0 0.0
2017-Sep-07 09:30N 37°53' E 023°32'0 0.1
2017-Sep-07 09:00N 37°53' E 023°32'0 0.1
2017-Sep-07 08:30N 37°53' E 023°32'0 0.1
2017-Sep-07 08:00N 37°53' E 023°32'0 0.1
2017-Sep-07 07:30N 37°53' E 023°32'0 0.1
2017-Sep-07 07:00N 37°53' E 023°32'2 3.4
2017-Sep-07 06:30N 37°54' E 023°33'3 6.1
2017-Sep-07 06:00N 37°57' E 023°35'  
Track history (hours):
 
Tides and Currents Weather Stations Pressure Air Temp Water Temp Dewpoint Dewpoint Depression Visibility Wind Speed Wind Dir Waves Ship Positions

Maria

Last reported at 2017-Sep-16 12:33 UTC. Time now 2017-Oct-22 04:49 UTC.
Position N 37°58' E 023°35'.
Warning: this ship's position is 35 days out of date.

Length 74 m; draft 4.5 m.

Type: Ship. MMSI: 237493000.

Date/timePositionNaut miles runAvg speedWind from/ knotsBaromVisibWave heightAir tempDewpointWater temp
2017-Sep-16 12:33N 37°58' E 023°35'0 0.4
2017-Sep-16 12:30N 37°58' E 023°35'1 2.1
2017-Sep-16 12:00N 37°57' E 023°36'0 0.0
2017-Sep-16 11:30N 37°57' E 023°36'0 0.0
2017-Sep-16 11:00N 37°57' E 023°36'0 0.0
2017-Sep-16 10:30N 37°57' E 023°36'0 0.0
2017-Sep-16 10:00N 37°57' E 023°36'0 0.1
2017-Sep-16 09:30N 37°57' E 023°36'0 0.1
2017-Sep-16 09:00N 37°57' E 023°36'0 0.0
2017-Sep-16 08:31N 37°57' E 023°36'0 0.0
2017-Sep-16 08:00N 37°57' E 023°36'0 0.0
2017-Sep-16 07:30N 37°57' E 023°36'0 0.0
2017-Sep-16 07:00N 37°57' E 023°36'0 0.0
2017-Sep-16 06:30N 37°57' E 023°36'1 2.0
2017-Sep-16 06:01N 37°57' E 023°35'0 0.3
2017-Sep-16 05:30N 37°58' E 023°35'0 0.0
2017-Sep-16 05:00N 37°58' E 023°35'0 0.0
2017-Sep-16 04:30N 37°58' E 023°35'0 0.0
2017-Sep-16 04:00N 37°58' E 023°35'0 0.0
2017-Sep-15 12:43N 37°58' E 023°35'0 0.0
2017-Sep-14 13:10N 37°58' E 023°35'0 2.5
2017-Sep-14 13:00N 37°57' E 023°35'3 6.5
2017-Sep-14 12:30N 37°54' E 023°33'4 7.0
2017-Sep-14 12:01N 37°52' E 023°29'4 7.1
2017-Sep-14 11:31N 37°52' E 023°25'4 7.3
2017-Sep-14 11:00N 37°52' E 023°20'4 7.3
2017-Sep-14 10:28N 37°53' E 023°15'3 0.3
2017-Sep-13 23:49N 37°55' E 023°12'2 7.4
2017-Sep-13 23:30N 37°54' E 023°15'4 7.2
2017-Sep-13 22:59N 37°53' E 023°19'4 7.9
2017-Sep-13 22:30N 37°52' E 023°24'4 7.6
2017-Sep-13 22:01N 37°52' E 023°29'4 7.4
2017-Sep-13 21:31N 37°54' E 023°33'4 7.3
2017-Sep-13 21:01N 37°57' E 023°35'0 0.5
2017-Sep-13 20:30N 37°58' E 023°35'1 1.2
2017-Sep-13 20:01N 37°57' E 023°35'0 0.0
2017-Sep-13 19:30N 37°57' E 023°35'0 0.0
2017-Sep-13 18:59N 37°57' E 023°35'0 0.0
2017-Sep-13 18:31N 37°57' E 023°35'0 0.0
2017-Sep-13 18:00N 37°57' E 023°35'0 0.0
2017-Sep-13 17:30N 37°57' E 023°35'0 0.0
2017-Sep-13 17:00N 37°57' E 023°35'0 0.0
2017-Sep-13 16:30N 37°57' E 023°35'0 0.0
2017-Sep-13 15:59N 37°57' E 023°35'2 4.8
2017-Sep-13 15:30N 37°55' E 023°34'4 8.3
2017-Sep-13 15:00N 37°52' E 023°31'1 1.5
2017-Sep-13 14:30N 37°51' E 023°30'0 0.0
2017-Sep-13 14:01N 37°51' E 023°30'0 0.0
2017-Sep-13 13:30N 37°51' E 023°30'0 0.0
2017-Sep-13 13:00N 37°51' E 023°30'0 0.0
2017-Sep-13 12:28N 37°51' E 023°30'0 0.0
2017-Sep-13 12:00N 37°51' E 023°30'0 0.0
2017-Sep-13 11:30N 37°51' E 023°30'0 0.0
2017-Sep-13 11:00N 37°51' E 023°30'0 0.0
2017-Sep-13 10:30N 37°51' E 023°30'0 0.0
2017-Sep-13 09:59N 37°51' E 023°30'1 2.2
2017-Sep-13 09:29N 37°52' E 023°31'3 7.1
2017-Sep-13 09:00N 37°55' E 023°34'3 5.5
2017-Sep-13 08:30N 37°58' E 023°35'0 0.0
2017-Sep-13 07:58N 37°58' E 023°35'0 0.0
2017-Sep-11 08:17N 37°58' E 023°35'0 0.2
2017-Sep-11 08:00N 37°58' E 023°35'0 0.0
2017-Sep-11 07:30N 37°58' E 023°35'0 0.0
2017-Sep-11 07:00N 37°58' E 023°35'0 0.0
2017-Sep-11 06:30N 37°58' E 023°35'0 0.0
2017-Sep-11 06:00N 37°58' E 023°35'0 0.0
2017-Sep-11 05:30N 37°58' E 023°35'0 0.0
2017-Sep-11 05:00N 37°58' E 023°35'0 0.0
2017-Sep-11 04:30N 37°58' E 023°35'1 2.8
2017-Sep-11 04:00N 37°56' E 023°35'4 7.2
2017-Sep-11 03:30N 37°53' E 023°32'4 7.5
2017-Sep-11 03:00N 37°51' E 023°28'4 7.7
2017-Sep-11 02:30N 37°52' E 023°23'4 7.8
2017-Sep-11 01:59N 37°53' E 023°18'6 7.5
2017-Sep-11 01:15N 37°54' E 023°11'4 0.5
2017-Sep-10 17:00N 37°54' E 023°16'4 8.3
2017-Sep-10 16:30N 37°53' E 023°21'4 8.4
2017-Sep-10 16:00N 37°52' E 023°26'4 7.9
2017-Sep-10 15:30N 37°54' E 023°31'4 7.6
2017-Sep-10 15:00N 37°56' E 023°35'2 0.0
2017-Sep-08 11:10N 37°58' E 023°35'0 0.6
2017-Sep-08 11:00N 37°57' E 023°35'0 0.3
2017-Sep-08 10:30N 37°58' E 023°35'0 0.0
2017-Sep-08 10:00N 37°58' E 023°35'0 0.0
2017-Sep-08 09:30N 37°58' E 023°35'0 0.0
2017-Sep-08 09:00N 37°58' E 023°35'0 0.0
2017-Sep-08 08:30N 37°58' E 023°35'0 0.0
2017-Sep-08 08:00N 37°58' E 023°35'0 0.0
2017-Sep-08 07:30N 37°58' E 023°35'0 0.0
2017-Sep-08 07:00N 37°58' E 023°35'0 0.0
2017-Sep-08 06:30N 37°58' E 023°35'0 0.0
2017-Sep-08 06:00N 37°58' E 023°35'0 0.0
2017-Sep-08 05:30N 37°58' E 023°35'0 0.0
2017-Sep-08 05:00N 37°58' E 023°35'0 0.0
2017-Sep-08 04:30N 37°58' E 023°35'0 0.0
2017-Sep-08 04:00N 37°58' E 023°35'0 0.0
2017-Sep-08 03:30N 37°58' E 023°35'0 0.0
2017-Sep-08 03:00N 37°58' E 023°35'0 0.0
2017-Sep-08 02:30N 37°58' E 023°35'0 0.3
2017-Sep-08 02:00N 37°57' E 023°35'3 6.7
2017-Sep-08 01:30N 37°54' E 023°33'4 7.9
2017-Sep-08 01:00N 37°52' E 023°29'4 8.0
2017-Sep-08 00:30N 37°52' E 023°24'4 8.1
2017-Sep-08 00:00N 37°52' E 023°19'4 8.0
2017-Sep-07 23:30N 37°53' E 023°14'5 0.8
2017-Sep-07 16:48N 37°55' E 023°08'3 8.6
2017-Sep-07 16:26N 37°54' E 023°12'4 8.4
2017-Sep-07 15:58N 37°54' E 023°17'4 8.4
2017-Sep-07 15:30N 37°53' E 023°22'4 8.2
2017-Sep-07 15:00N 37°52' E 023°27'4 7.9
2017-Sep-07 14:30N 37°53' E 023°31'0 0.3
2017-Sep-07 14:00N 37°53' E 023°32'0 0.0
2017-Sep-07 13:30N 37°53' E 023°32'0 0.0
2017-Sep-07 13:00N 37°53' E 023°32'0 0.0
2017-Sep-07 12:30N 37°53' E 023°32'0 0.1
2017-Sep-07 12:00N 37°53' E 023°32'0 0.0
2017-Sep-07 11:30N 37°53' E 023°32'0 0.1
2017-Sep-07 11:00N 37°53' E 023°32'0 0.0
2017-Sep-07 10:30N 37°53' E 023°32'0 0.0
2017-Sep-07 10:00N 37°53' E 023°32'0 0.0
2017-Sep-07 09:30N 37°53' E 023°32'0 0.1
2017-Sep-07 09:00N 37°53' E 023°32'0 0.1
2017-Sep-07 08:30N 37°53' E 023°32'0 0.1
2017-Sep-07 08:00N 37°53' E 023°32'0 0.1
2017-Sep-07 07:30N 37°53' E 023°32'0 0.1
2017-Sep-07 07:00N 37°53' E 023°32'2 3.4
2017-Sep-07 06:30N 37°54' E 023°33'3 6.1
2017-Sep-07 06:00N 37°57' E 023°35'  

Dump ship's entire track history